Time;durP1;ratioP1;P1;durP2;ratioP2;P2;SDS_P1;SDS_P2;PMS_P1;PMS_P2;Temp;Humidity;BMP_temperature;BMP_pressure;BME280_temperature;BME280_humidity;BME280_pressure;Samples;Min_cycle;Max_cycle;Signal;HPM_P1;HPM_P2
2024/01/08 00:01:02;;;;;;;;;23.50;18.75;;;;;-143.90;100.00;77796.59;4855472;28;103466;-68
2024/01/08 00:03:30;;;;;;;;;20.00;16.50;;;;;-143.90;100.00;77786.25;4858397;28;102669;-69
2024/01/08 00:05:57;;;;;;;;;19.00;16.00;;;;;-143.90;100.00;77782.13;4857082;28;102956;-68
2024/01/08 00:08:24;;;;;;;;;19.00;18.00;;;;;-143.90;100.00;77778.00;4852450;28;102039;-68
2024/01/08 00:10:51;;;;;;;;;15.50;12.00;;;;;-143.90;100.00;77786.25;4857631;28;103483;-68
2024/01/08 00:13:18;;;;;;;;;19.50;16.00;;;;;-143.90;100.00;77794.53;4840411;28;102114;-67
2024/01/08 00:15:45;;;;;;;;;23.50;19.00;;;;;-143.90;100.00;77804.88;4853495;28;103393;-67
2024/01/08 00:18:12;;;;;;;;;20.00;20.00;;;;;-143.90;100.00;77806.94;4850981;28;102163;-68
2024/01/08 00:20:39;;;;;;;;;18.50;12.25;;;;;-143.90;100.00;77806.94;4850906;28;103625;-67
2024/01/08 00:23:06;;;;;;;;;29.25;26.25;;;;;-143.90;100.00;77823.50;4857306;28;102060;-68
2024/01/08 00:25:32;;;;;;;;;20.50;16.50;;;;;-143.90;100.00;77827.63;4858782;28;101810;-68
2024/01/08 00:28:00;;;;;;;;;19.00;13.25;;;;;-143.90;100.00;77829.72;4858315;28;101768;-68
2024/01/08 00:30:27;;;;;;;;;15.25;15.00;;;;;-143.90;100.00;77848.31;4847998;28;103700;-67
2024/01/08 00:32:53;;;;;;;;;26.50;21.00;;;;;-143.90;100.00;77864.88;4857633;28;101956;-67
2024/01/08 00:35:20;;;;;;;;;30.00;19.50;;;;;-143.90;100.00;77877.28;4858900;28;103245;-68
2024/01/08 00:37:47;;;;;;;;;20.00;18.25;;;;;-143.90;100.00;77877.28;4861151;28;102078;-67
2024/01/08 00:40:14;;;;;;;;;24.00;20.75;;;;;-143.90;100.00;77885.56;4856055;28;103668;-66
2024/01/08 00:42:41;;;;;;;;;23.75;20.00;;;;;-143.90;100.00;77877.28;4832840;28;103291;-68
2024/01/08 00:45:08;;;;;;;;;22.00;18.50;;;;;-143.90;100.00;77885.56;4856345;28;102481;-68
2024/01/08 00:47:35;;;;;;;;;15.00;13.00;;;;;-143.90;100.00;77879.34;4859615;28;102278;-68
2024/01/08 00:50:03;;;;;;;;;14.00;12.50;;;;;-143.90;100.00;77885.56;4857589;28;102907;-67
2024/01/08 00:52:30;;;;;;;;;22.50;19.50;;;;;-143.90;100.00;77889.69;4849969;28;102160;-67
2024/01/08 00:55:03;;;;;;;;;26.75;24.50;;;;;-143.90;100.00;77910.38;4854659;28;101857;-68
2024/01/08 00:57:31;;;;;;;;;24.75;17.50;;;;;-143.90;100.00;77918.66;4859455;28;104123;-67
2024/01/08 00:59:58;;;;;;;;;22.50;16.00;;;;;-143.90;100.00;77912.47;4846120;28;103706;-67
2024/01/08 01:02:27;;;;;;;;;20.75;15.50;;;;;-143.90;100.00;77922.81;4849019;28;102201;-68
2024/01/08 01:04:54;;;;;;;;;31.00;22.25;;;;;-143.90;100.00;77939.34;4858170;28;101598;-68
2024/01/08 01:07:21;;;;;;;;;26.00;20.00;;;;;-143.90;100.00;77929.00;4861908;28;102923;-68
2024/01/08 01:09:48;;;;;;;;;17.00;14.25;;;;;-143.90;100.00;77933.16;4861474;28;105648;-68
2024/01/08 01:12:15;;;;;;;;;15.50;12.00;;;;;-143.90;100.00;77931.06;4856321;28;103415;-67
2024/01/08 01:14:42;;;;;;;;;10.75;9.25;;;;;-143.90;100.00;77933.16;4852465;28;101590;-68
2024/01/08 01:17:08;;;;;;;;;15.50;12.75;;;;;-143.90;100.00;77931.06;4864873;28;101667;-67
2024/01/08 01:19:35;;;;;;;;;16.00;12.25;;;;;-143.90;100.00;77931.06;4860073;28;104451;-68
2024/01/08 01:22:02;;;;;;;;;17.25;13.25;;;;;-143.90;100.00;77922.81;4861141;28;101877;-68
2024/01/08 01:24:29;;;;;;;;;15.75;11.50;;;;;-143.90;100.00;77920.72;4838533;28;102601;-67
2024/01/08 01:26:55;;;;;;;;;11.50;10.25;;;;;-143.90;100.00;77918.66;4836088;28;102764;-68
2024/01/08 01:29:22;;;;;;;;;13.50;13.00;;;;;-143.90;100.00;77924.88;4859358;28;103558;-67
2024/01/08 01:31:49;;;;;;;;;17.50;13.50;;;;;-143.90;100.00;77931.06;4857924;28;101840;-68
2024/01/08 01:34:17;;;;;;;;;23.75;19.50;;;;;-143.90;100.00;77935.22;4857761;28;104074;-67
2024/01/08 01:36:45;;;;;;;;;40.50;28.50;;;;;-143.90;100.00;77941.44;4853871;28;103865;-67
2024/01/08 01:39:12;;;;;;;;;18.00;16.00;;;;;-143.90;100.00;77955.91;4858383;28;103177;-68
2024/01/08 01:41:38;;;;;;;;;16.00;13.50;;;;;-143.90;100.00;77953.84;4862817;28;102314;-67
2024/01/08 01:44:05;;;;;;;;;14.75;10.00;;;;;-143.90;100.00;77972.47;4859718;28;103727;-68
2024/01/08 01:46:48;;;;;;;;;32.25;21.50;;;;;-143.90;100.00;77986.94;4854429;28;102844;-67
2024/01/08 01:49:18;;;;;;;;;20.75;15.00;;;;;-143.90;100.00;78001.41;4856171;28;108313;-68
2024/01/08 01:51:46;;;;;;;;;22.25;19.00;;;;;-143.90;100.00;78015.91;4860586;28;102070;-68
2024/01/08 01:54:15;;;;;;;;;23.75;18.25;;;;;-143.90;100.00;78009.69;4856765;28;101791;-67
2024/01/08 01:56:44;;;;;;;;;19.50;15.00;;;;;-143.90;100.00;78011.75;4856784;28;103171;-67
2024/01/08 01:59:11;;;;;;;;;17.25;13.00;;;;;-143.90;100.00;78022.09;4859857;28;103843;-67
2024/01/08 02:01:38;;;;;;;;;12.50;10.00;;;;;-143.90;100.00;78007.63;4862869;28;102051;-68
2024/01/08 02:04:05;;;;;;;;;18.50;11.75;;;;;-143.90;100.00;78013.84;4837102;28;101893;-67
2024/01/08 02:06:35;;;;;;;;;21.00;17.75;;;;;-143.90;100.00;78026.25;4856907;28;101891;-69
2024/01/08 02:09:02;;;;;;;;;14.75;9.50;;;;;-143.90;100.00;78032.44;4860372;28;103545;-68
2024/01/08 02:11:29;;;;;;;;;23.75;16.25;;;;;-143.90;100.00;78034.53;4858237;28;101751;-67
2024/01/08 02:13:56;;;;;;;;;25.25;20.50;;;;;-143.90;100.00;78038.66;4859312;28;103251;-68
2024/01/08 02:16:23;;;;;;;;;21.75;19.00;;;;;-143.90;100.00;78046.94;4857119;28;104040;-68
2024/01/08 02:18:51;;;;;;;;;18.00;15.50;;;;;-143.90;100.00;78032.44;4854204;28;102698;-67
2024/01/08 02:21:18;;;;;;;;;18.25;15.75;;;;;-143.90;100.00;78032.44;4841466;28;102482;-69
2024/01/08 02:23:45;;;;;;;;;19.25;16.00;;;;;-143.90;100.00;78034.53;4858546;28;101482;-67
2024/01/08 02:26:12;;;;;;;;;19.50;18.50;;;;;-143.90;100.00;78038.66;4860023;28;101714;-67
2024/01/08 02:28:39;;;;;;;;;18.50;18.25;;;;;-143.90;100.00;78036.59;4855485;28;103802;-67
2024/01/08 02:31:06;;;;;;;;;19.75;15.50;;;;;-143.90;100.00;78040.72;4857914;28;102204;-67
2024/01/08 02:33:33;;;;;;;;;17.75;16.50;;;;;-143.90;100.00;78040.72;4860177;28;101879;-67
2024/01/08 02:36:00;;;;;;;;;16.25;8.75;;;;;-143.90;100.00;78038.66;4860802;28;101628;-67
2024/01/08 02:38:27;;;;;;;;;14.00;10.50;;;;;-143.90;100.00;78046.94;4853407;28;103678;-67
2024/01/08 02:40:54;;;;;;;;;11.75;9.25;;;;;-143.90;100.00;78046.94;4859733;28;101853;-67
2024/01/08 02:43:20;;;;;;;;;11.50;11.00;;;;;-143.90;100.00;78034.53;4839100;28;101729;-67
2024/01/08 02:45:47;;;;;;;;;13.00;10.50;;;;;-143.90;100.00;78051.06;4859461;28;102338;-66
2024/01/08 02:48:14;;;;;;;;;16.50;13.50;;;;;-143.90;100.00;78051.06;4857399;28;103528;-68
2024/01/08 02:50:41;;;;;;;;;13.00;13.00;;;;;-143.90;100.00;78059.34;4857897;28;102023;-68
2024/01/08 02:53:07;;;;;;;;;25.00;15.25;;;;;-143.90;100.00;78071.75;4859867;28;101891;-67
2024/01/08 02:55:34;;;;;;;;;17.50;14.50;;;;;-143.90;100.00;78082.09;4860679;28;102058;-68
2024/01/08 02:58:05;;;;;;;;;19.00;15.50;;;;;-143.90;100.00;78059.34;4858900;28;103695;-67
2024/01/08 03:00:31;;;;;;;;;24.75;18.25;;;;;-143.90;100.00;78071.75;4842475;28;105066;-67
2024/01/08 03:02:58;;;;;;;;;18.00;18.00;;;;;-143.90;100.00;78086.25;4859019;28;104055;-68
2024/01/08 03:05:25;;;;;;;;;16.25;15.00;;;;;-143.90;100.00;78086.25;4860432;28;102016;-68
2024/01/08 03:07:52;;;;;;;;;15.50;9.75;;;;;-143.90;100.00;78082.09;4859483;28;104856;-67
2024/01/08 03:10:19;;;;;;;;;27.00;21.00;;;;;-143.90;100.00;78090.38;4854549;28;102086;-68
2024/01/08 03:12:45;;;;;;;;;22.50;18.25;;;;;-143.90;100.00;78088.31;4853877;28;101802;-68
2024/01/08 03:15:12;;;;;;;;;18.00;14.00;;;;;-143.90;100.00;78088.31;4856768;28;103330;-68
2024/01/08 03:17:39;;;;;;;;;18.25;11.75;;;;;-143.90;100.00;78080.03;4858536;28;109531;-68
2024/01/08 03:20:08;;;;;;;;;16.25;11.50;;;;;-143.90;100.00;78092.44;4857448;28;102004;-67
2024/01/08 03:22:35;;;;;;;;;21.75;17.50;;;;;-143.90;100.00;78080.03;4850323;28;101641;-68
2024/01/08 03:25:03;;;;;;;;;27.25;20.75;;;;;-143.90;100.00;78109.00;4856868;28;102325;-67
2024/01/08 03:27:29;;;;;;;;;25.75;19.75;;;;;-143.90;100.00;78100.72;4858314;28;103097;-67
2024/01/08 03:29:56;;;;;;;;;28.75;20.75;;;;;-143.90;100.00;78117.28;4857940;28;102217;-67
2024/01/08 03:32:23;;;;;;;;;22.50;16.00;;;;;-143.90;100.00;78117.28;4873386;28;101722;-67
2024/01/08 03:34:51;;;;;;;;;17.50;13.00;;;;;-143.90;100.00;78100.72;4875044;28;102629;-68
2024/01/08 03:37:18;;;;;;;;;26.50;20.00;;;;;-143.90;100.00;78115.22;4877128;28;104094;-67
2024/01/08 03:39:44;;;;;;;;;18.50;17.25;;;;;-143.90;100.00;78117.28;4874273;28;102100;-67
2024/01/08 03:42:11;;;;;;;;;25.25;21.25;;;;;-143.90;100.00;78129.69;4881456;28;102805;-68
2024/01/08 03:44:38;;;;;;;;;33.25;27.50;;;;;-143.90;100.00;78142.09;4870889;28;103179;-69
2024/01/08 03:47:05;;;;;;;;;17.25;16.25;;;;;-143.90;100.00;78150.38;4878128;28;103482;-68
2024/01/08 03:49:31;;;;;;;;;25.00;21.25;;;;;-143.90;100.00;78160.72;4877646;28;102190;-68
2024/01/08 03:51:58;;;;;;;;;23.00;18.00;;;;;-143.90;100.00;78154.53;4875122;28;103509;-67
2024/01/08 03:54:25;;;;;;;;;27.00;24.00;;;;;-143.90;100.00;78162.78;4870641;28;102109;-67
2024/01/08 03:56:52;;;;;;;;;22.25;17.00;;;;;-143.90;100.00;78154.53;4875056;28;103718;-67
2024/01/08 03:59:19;;;;;;;;;17.25;15.00;;;;;-143.90;100.00;78158.66;4865523;28;102013;-67
2024/01/08 04:01:46;;;;;;;;;16.25;12.75;;;;;-143.90;100.00;78152.44;4878144;28;101925;-67
2024/01/08 04:04:13;;;;;;;;;18.75;13.50;;;;;-143.90;100.00;78162.78;4878179;28;102926;-68
2024/01/08 04:06:40;;;;;;;;;20.25;12.75;;;;;-143.90;100.00;78173.13;4874613;28;110367;-68
2024/01/08 04:09:07;;;;;;;;;21.50;18.50;;;;;-143.90;100.00;78162.78;4877930;28;102332;-67
2024/01/08 04:11:34;;;;;;;;;22.00;17.25;;;;;-143.90;100.00;78162.78;4877118;28;101902;-68
2024/01/08 04:14:00;;;;;;;;;15.25;12.75;;;;;-143.90;100.00;78164.88;4878608;28;101837;-68
2024/01/08 04:16:27;;;;;;;;;25.00;19.50;;;;;-143.90;100.00;78173.13;4870473;28;103598;-68
2024/01/08 04:18:54;;;;;;;;;26.75;18.50;;;;;-143.90;100.00;78183.47;4875718;28;103500;-67
2024/01/08 04:21:21;;;;;;;;;26.50;23.00;;;;;-143.90;100.00;78195.91;4878655;28;101626;-67
2024/01/08 04:23:47;;;;;;;;;15.00;10.00;;;;;-143.90;100.00;78191.75;4880706;28;101574;-68
2024/01/08 04:26:15;;;;;;;;;18.50;15.75;;;;;-143.90;100.00;78200.03;4880865;28;103597;-67
2024/01/08 04:28:43;;;;;;;;;22.50;19.50;;;;;-143.90;100.00;78220.72;4879296;28;104447;-67
2024/01/08 04:31:17;;;;;;;;;16.50;15.25;;;;;-143.90;100.00;78208.31;4865707;28;102101;-68
2024/01/08 04:33:44;;;;;;;;;15.00;12.75;;;;;-143.90;100.00;78212.44;4856770;28;103987;-68
2024/01/08 04:36:12;;;;;;;;;20.75;15.00;;;;;-143.90;100.00;78216.59;4859822;28;103482;-67
2024/01/08 04:38:40;;;;;;;;;19.75;17.50;;;;;-143.90;100.00;78218.66;4837421;28;102402;-67
2024/01/08 04:41:07;;;;;;;;;23.00;16.00;;;;;-143.90;100.00;78220.72;4858702;28;101882;-68
2024/01/08 04:43:34;;;;;;;;;21.25;15.00;;;;;-143.90;100.00;78218.66;4860807;28;101811;-67
2024/01/08 04:46:01;;;;;;;;;22.75;17.50;;;;;-143.90;100.00;78229.00;4859213;28;103373;-67
2024/01/08 04:48:28;;;;;;;;;27.75;17.00;;;;;-143.90;100.00;78237.28;4853061;28;102704;-68
2024/01/08 04:50:54;;;;;;;;;15.50;12.50;;;;;-143.90;100.00;78239.34;4861023;28;101682;-68
2024/01/08 04:53:21;;;;;;;;;21.00;18.00;;;;;-143.90;100.00;78249.69;4860125;28;102716;-67
2024/01/08 04:55:48;;;;;;;;;18.75;15.00;;;;;-143.90;100.00;78257.97;4836123;28;104077;-67
2024/01/08 04:58:15;;;;;;;;;20.00;15.75;;;;;-143.90;100.00;78266.25;4842265;28;102117;-68
2024/01/08 05:00:42;;;;;;;;;29.50;23.25;;;;;-143.90;100.00;78274.53;4842942;28;102169;-67
2024/01/08 05:03:09;;;;;;;;;21.25;15.00;;;;;-143.90;100.00;78268.31;4861106;28;102033;-67
2024/01/08 05:05:36;;;;;;;;;25.00;19.50;;;;;-143.90;100.00;78278.66;4859622;28;102745;-68
2024/01/08 05:08:04;;;;;;;;;22.00;17.50;;;;;-143.90;100.00;78284.88;4844562;28;101711;-67
2024/01/08 05:10:31;;;;;;;;;18.25;16.00;;;;;-143.90;100.00;78282.78;4836841;28;102392;-69
2024/01/08 05:12:58;;;;;;;;;23.50;16.00;;;;;-143.90;100.00;78303.47;4858307;28;102242;-67
2024/01/08 05:15:25;;;;;;;;;34.25;25.50;;;;;-143.90;100.00;78311.75;4859134;28;103026;-68
2024/01/08 05:17:51;;;;;;;;;33.50;23.00;;;;;-143.90;100.00;78311.75;4859427;28;102271;-67
2024/01/08 05:20:18;;;;;;;;;27.00;24.00;;;;;-143.90;100.00;78320.03;4859271;28;102629;-66
2024/01/08 05:22:46;;;;;;;;;16.25;16.25;;;;;-143.90;100.00;78309.69;4842064;28;104007;-65
2024/01/08 05:25:12;;;;;;;;;25.00;20.50;;;;;-143.90;100.00;78311.75;4858375;28;109293;-66
2024/01/08 05:27:39;;;;;;;;;27.75;21.00;;;;;-143.90;100.00;78311.75;4859888;28;102868;-67
2024/01/08 05:30:07;;;;;;;;;21.75;15.50;;;;;-143.90;100.00;78315.91;4855243;28;101953;-66
2024/01/08 05:32:34;;;;;;;;;16.00;12.00;;;;;-143.90;100.00;78322.09;4853207;28;101588;-66
2024/01/08 05:35:01;;;;;;;;;14.75;12.50;;;;;-143.90;100.00;78322.09;4858438;28;102756;-66
2024/01/08 05:37:28;;;;;;;;;26.50;17.00;;;;;-143.90;100.00;78322.09;4857839;28;102328;-67
2024/01/08 05:39:55;;;;;;;;;31.25;27.00;;;;;-143.90;100.00;78328.31;4857500;28;101979;-67
2024/01/08 05:42:22;;;;;;;;;25.00;24.00;;;;;-143.90;100.00;78332.44;4857200;28;101966;-67
2024/01/08 05:44:48;;;;;;;;;35.00;24.75;;;;;-143.90;100.00;78349.00;4852679;28;103666;-69
2024/01/08 05:47:15;;;;;;;;;31.50;26.75;;;;;-143.90;100.00;78344.88;4861766;28;101850;-66
2024/01/08 05:49:43;;;;;;;;;24.25;16.50;;;;;-143.90;100.00;78340.72;4852436;28;101866;-67
2024/01/08 05:52:09;;;;;;;;;25.25;20.00;;;;;-143.90;100.00;78351.06;4853448;28;102070;-67
2024/01/08 05:54:36;;;;;;;;;33.25;27.25;;;;;-143.90;100.00;78361.41;4842128;28;103791;-67
2024/01/08 05:57:03;;;;;;;;;18.75;13.50;;;;;-143.90;100.00;78349.00;4856824;28;101960;-68
2024/01/08 05:59:30;;;;;;;;;29.00;22.25;;;;;-143.90;100.00;78353.13;4833197;28;102955;-67
2024/01/08 06:01:57;;;;;;;;;20.50;12.00;;;;;-143.90;100.00;78361.41;4854921;28;101791;-67
2024/01/08 06:04:24;;;;;;;;;32.50;28.00;;;;;-143.90;100.00;78363.50;4851874;28;103358;-68
2024/01/08 06:06:52;;;;;;;;;19.00;15.50;;;;;-143.90;100.00;78361.41;4849003;28;101991;-68
2024/01/08 06:09:19;;;;;;;;;19.25;13.00;;;;;-143.90;100.00;78359.34;4858309;28;102241;-67
2024/01/08 06:11:46;;;;;;;;;32.25;22.50;;;;;-143.90;100.00;78357.28;4861658;28;103723;-68
2024/01/08 06:14:12;;;;;;;;;27.50;24.50;;;;;-143.90;100.00;78375.91;4860501;28;106812;-68
2024/01/08 06:16:39;;;;;;;;;33.25;21.25;;;;;-143.90;100.00;78384.19;4851629;28;103264;-69
2024/01/08 06:19:06;;;;;;;;;18.50;15.50;;;;;-143.90;100.00;78388.31;4858932;28;101955;-67
2024/01/08 06:21:33;;;;;;;;;25.00;18.25;;;;;-143.90;100.00;78377.97;4861803;28;101615;-68
2024/01/08 06:24:00;;;;;;;;;21.00;17.50;;;;;-143.90;100.00;78388.31;4859813;28;103372;-68
2024/01/08 06:26:30;;;;;;;;;26.25;22.00;;;;;-143.90;100.00;78380.03;4855537;28;102068;-68
2024/01/08 06:28:58;;;;;;;;;36.25;25.50;;;;;-143.90;100.00;78394.53;4858706;28;102290;-68
2024/01/08 06:31:25;;;;;;;;;29.50;27.25;;;;;-143.90;100.00;78390.38;4852552;28;101851;-68
2024/01/08 06:33:52;;;;;;;;;27.00;20.75;;;;;-143.90;100.00;78382.09;4835820;28;103743;-68
2024/01/08 06:36:19;;;;;;;;;26.00;20.75;;;;;-143.90;100.00;78382.09;4857531;28;102333;-68
2024/01/08 06:38:46;;;;;;;;;19.50;17.00;;;;;-143.90;100.00;78382.09;4858631;28;101964;-68
2024/01/08 06:41:12;;;;;;;;;18.00;14.00;;;;;-143.90;100.00;78380.03;4845337;28;102092;-68
2024/01/08 06:43:39;;;;;;;;;19.00;14.00;;;;;-143.90;100.00;78375.91;4857008;28;102680;-68
2024/01/08 06:46:09;;;;;;;;;32.75;21.25;;;;;-143.90;100.00;78384.19;4859946;28;101894;-69
2024/01/08 06:48:35;;;;;;;;;18.25;17.50;;;;;-143.90;100.00;78377.97;4848301;28;102499;-67
2024/01/08 06:51:02;;;;;;;;;25.50;22.00;;;;;-143.90;100.00;78369.69;4831801;28;102145;-68
2024/01/08 06:53:29;;;;;;;;;22.25;17.25;;;;;-143.90;100.00;78373.84;4854112;28;103967;-67
2024/01/08 06:55:56;;;;;;;;;18.00;16.25;;;;;-143.90;100.00;78375.91;4853908;28;101800;-68
2024/01/08 06:58:22;;;;;;;;;16.00;10.50;;;;;-143.90;100.00;78363.50;4851844;28;105003;-68
2024/01/08 07:00:49;;;;;;;;;13.00;12.00;;;;;-143.90;100.00;78365.56;4833878;28;101923;-68
2024/01/08 07:03:17;;;;;;;;;18.75;17.75;;;;;-143.90;100.00;78369.69;4860404;28;103404;-68
2024/01/08 07:05:44;;;;;;;;;28.00;24.25;;;;;-143.90;100.00;78380.03;4858135;28;102267;-67
2024/01/08 07:08:14;;;;;;;;;36.00;30.50;;;;;-143.90;100.00;78390.38;4856735;28;102325;-67
2024/01/08 07:10:41;;;;;;;;;22.50;15.00;;;;;-143.90;100.00;78386.25;4850108;28;102075;-67
2024/01/08 07:13:08;;;;;;;;;19.50;17.75;;;;;-143.90;100.00;78386.25;4857117;28;103299;-67
2024/01/08 07:15:35;;;;;;;;;30.75;27.00;;;;;-143.90;100.00;78404.88;4855843;28;103412;-71
2024/01/08 07:18:03;;;;;;;;;21.50;17.75;;;;;-143.90;100.00;78411.06;4849009;28;102059;-68
2024/01/08 07:20:30;;;;;;;;;34.50;26.75;;;;;-143.90;100.00;78419.34;4851741;28;101965;-67
2024/01/08 07:22:57;;;;;;;;;27.75;22.50;;;;;-143.90;100.00;78400.72;4858653;28;103548;-67
2024/01/08 07:25:23;;;;;;;;;24.75;21.50;;;;;-143.90;100.00;78419.34;4835354;28;102762;-68
2024/01/08 07:27:50;;;;;;;;;21.75;14.00;;;;;-143.90;100.00;78400.72;4857728;28;102432;-69
2024/01/08 07:30:18;;;;;;;;;17.50;15.25;;;;;-143.90;100.00;78386.25;4861746;28;101784;-68
2024/01/08 07:32:44;;;;;;;;;24.75;21.00;;;;;-143.90;100.00;78398.66;4855886;28;106673;-68
2024/01/08 07:35:11;;;;;;;;;21.50;18.00;;;;;-143.90;100.00;78398.66;4855568;28;102544;-68
2024/01/08 07:37:38;;;;;;;;;24.25;22.50;;;;;-143.90;100.00;78400.72;4859773;28;103206;-68
2024/01/08 07:40:06;;;;;;;;;15.75;10.50;;;;;-143.90;100.00;78404.88;4863666;28;103409;-68
2024/01/08 07:42:32;;;;;;;;;18.50;13.00;;;;;-143.90;100.00;78394.53;4850160;28;104046;-68
2024/01/08 07:45:00;;;;;;;;;14.75;14.25;;;;;-143.90;100.00;78382.09;4859076;28;102145;-69
2024/01/08 07:47:27;;;;;;;;;23.50;18.00;;;;;-143.90;100.00;78388.31;4861303;28;101603;-68
2024/01/08 07:49:54;;;;;;;;;19.25;15.00;;;;;-143.90;100.00;78390.38;4859705;28;102560;-67
2024/01/08 07:52:20;;;;;;;;;21.00;18.25;;;;;-143.90;100.00;78384.19;4855689;28;102992;-67
2024/01/08 07:55:00;;;;;;;;;21.00;18.00;;;;;-143.90;100.00;78396.59;4859588;28;102156;-68
2024/01/08 07:57:27;;;;;;;;;18.00;14.50;;;;;-143.90;100.00;78406.94;4863372;28;101681;-67
2024/01/08 07:59:53;;;;;;;;;33.00;21.75;;;;;-143.90;100.00;78390.38;4859853;28;101623;-68
2024/01/08 08:02:20;;;;;;;;;19.50;17.50;;;;;-143.90;100.00;78382.09;4853954;28;103589;-68
2024/01/08 08:04:47;;;;;;;;;36.75;28.25;;;;;-143.90;100.00;78390.38;4858947;28;102090;-68
2024/01/08 08:07:14;;;;;;;;;12.50;10.50;;;;;-143.90;100.00;78394.53;4860597;28;103264;-69
2024/01/08 08:09:40;;;;;;;;;24.25;21.25;;;;;-143.90;100.00;78398.66;4862855;28;101960;-69
2024/01/08 08:12:07;;;;;;;;;28.50;22.00;;;;;-143.90;100.00;78384.19;4858195;28;104010;-68
2024/01/08 08:14:36;;;;;;;;;21.75;20.00;;;;;-143.90;100.00;78398.66;4855265;28;102020;-68
2024/01/08 08:17:03;;;;;;;;;24.75;21.50;;;;;-143.90;100.00;78411.06;4862003;28;102730;-69
2024/01/08 08:19:30;;;;;;;;;23.25;18.00;;;;;-143.90;100.00;78423.50;4846610;28;101974;-68
2024/01/08 08:21:57;;;;;;;;;29.50;22.00;;;;;-143.90;100.00;78419.34;4851062;28;103368;-68
2024/01/08 08:24:24;;;;;;;;;20.75;18.00;;;;;-143.90;100.00;78384.19;4858957;28;101862;-68
2024/01/08 08:26:51;;;;;;;;;15.00;14.00;;;;;-143.90;100.00;78363.50;4859712;28;101796;-68
2024/01/08 08:29:18;;;;;;;;;28.25;24.00;;;;;-143.90;100.00;78380.03;4839248;28;101920;-68
2024/01/08 08:31:44;;;;;;;;;15.50;15.00;;;;;-143.90;100.00;78344.88;4861331;28;108113;-68
2024/01/08 08:34:11;;;;;;;;;18.50;14.00;;;;;-143.90;100.00;78328.31;4860179;28;101962;-68
2024/01/08 08:36:39;;;;;;;;;17.50;12.50;;;;;-143.90;100.00;78305.56;4831128;28;102360;-68
2024/01/08 08:39:05;;;;;;;;;33.50;30.25;;;;;-143.90;100.00;78357.28;4864228;28;101659;-69
2024/01/08 08:41:32;;;;;;;;;22.50;16.00;;;;;-143.90;100.00;78336.59;4860672;28;105274;-68
2024/01/08 08:43:59;;;;;;;;;18.50;16.50;;;;;-143.90;100.00;78334.53;4860990;28;104017;-68
2024/01/08 08:46:26;;;;;;;;;19.50;15.00;;;;;-143.90;100.00;78324.19;4850779;28;101841;-67
2024/01/08 08:48:52;;;;;;;;;17.50;16.00;;;;;-143.90;100.00;78299.34;4858574;28;103747;-68
2024/01/08 08:51:19;;;;;;;;;29.00;20.00;;;;;-143.90;100.00;78305.56;4857383;28;103469;-69
2024/01/08 08:53:46;;;;;;;;;26.50;20.00;;;;;-143.90;100.00;78291.06;4855111;28;101811;-69
2024/01/08 08:56:12;;;;;;;;;15.25;13.50;;;;;-143.90;100.00;78295.22;4859734;28;101767;-67
2024/01/08 08:58:39;;;;;;;;;12.75;12.50;;;;;-143.90;100.00;78307.63;4850470;28;101985;-68
2024/01/08 09:01:06;;;;;;;;;28.25;20.75;;;;;-143.90;100.00;78317.97;4861042;28;103414;-67
2024/01/08 09:03:33;;;;;;;;;22.00;18.00;;;;;-143.90;100.00;78303.47;4857828;28;102067;-68
2024/01/08 09:06:03;;;;;;;;;18.00;15.00;;;;;-143.90;100.00;78315.91;4859471;28;101794;-68
2024/01/08 09:08:30;;;;;;;;;14.50;12.00;;;;;-143.90;100.00;78266.25;4857319;28;101835;-68
2024/01/08 09:10:56;;;;;;;;;24.75;20.00;;;;;-143.90;100.00;78260.03;4864193;28;102943;-68
2024/01/08 09:13:23;;;;;;;;;16.00;9.00;;;;;-143.90;100.00;78229.00;4862271;28;101983;-69
2024/01/08 09:15:50;;;;;;;;;17.50;12.75;;;;;-143.90;100.00;78235.22;4861782;28;103041;-69
2024/01/08 09:18:18;;;;;;;;;12.25;12.00;;;;;-143.90;100.00;78249.69;4864921;28;102649;-68
2024/01/08 09:20:45;;;;;;;;;15.75;15.00;;;;;-143.90;100.00;78224.88;4856498;28;107361;-68
2024/01/08 09:23:12;;;;;;;;;19.50;17.00;;;;;-143.90;100.00;78253.81;4861092;28;103698;-68
2024/01/08 09:25:38;;;;;;;;;17.00;12.50;;;;;-143.90;100.00;78237.28;4837481;28;101608;-68
2024/01/08 09:28:05;;;;;;;;;25.00;19.00;;;;;-143.90;100.00;78293.13;4839384;28;101752;-69
2024/01/08 09:30:32;;;;;;;;;21.00;16.25;;;;;-143.90;100.00;78291.06;4855770;28;103586;-68
2024/01/08 09:32:58;;;;;;;;;30.25;24.75;;;;;-143.90;100.00;78315.91;4862728;28;102034;-68
2024/01/08 09:35:25;;;;;;;;;24.50;21.00;;;;;-143.90;100.00;78303.47;4862699;28;101779;-68
2024/01/08 09:37:52;;;;;;;;;18.75;15.00;;;;;-143.90;100.00;78295.22;4865359;28;101603;-68
2024/01/08 09:40:19;;;;;;;;;29.75;13.75;;;;;-143.90;100.00;78280.72;4861232;28;103139;-69
2024/01/08 09:42:51;;;;;;;;;9.25;6.00;;;;;-143.90;100.00;78291.06;4834997;28;102471;-69
2024/01/08 09:45:22;;;;;;;;;20.50;17.75;;;;;-143.90;100.00;78282.78;4816382;28;101907;-68
2024/01/08 09:47:49;;;;;;;;;14.50;13.00;;;;;-143.90;100.00;78270.38;4856146;28;101901;-69
2024/01/08 09:50:18;;;;;;;;;20.00;18.25;;;;;-143.90;100.00;78299.34;4844544;28;107073;-69
2024/01/08 09:52:46;;;;;;;;;19.50;18.25;;;;;-143.90;100.00;78317.97;4856820;28;101910;-68
2024/01/08 09:55:14;;;;;;;;;25.75;21.50;;;;;-143.90;100.00;78317.97;4860687;28;101854;-69
2024/01/08 09:57:41;;;;;;;;;17.00;15.75;;;;;-143.90;100.00;78303.47;4856222;28;102203;-69
2024/01/08 10:00:09;;;;;;;;;13.00;10.00;;;;;-143.90;100.00;78266.25;4861577;28;103557;-68
2024/01/08 10:02:37;;;;;;;;;18.75;18.00;;;;;-143.90;100.00;78262.09;4853002;28;104208;-68
2024/01/08 10:05:07;;;;;;;;;30.25;23.75;;;;;-143.90;100.00;78260.03;4834847;28;104540;-68
2024/01/08 10:07:35;;;;;;;;;10.50;7.50;;;;;-143.90;100.00;78280.72;4859979;28;101825;-69
2024/01/08 10:10:03;;;;;;;;;31.00;22.50;;;;;-143.90;100.00;78274.53;4859245;28;103074;-68
2024/01/08 10:12:33;;;;;;;;;27.25;17.00;;;;;-143.90;100.00;78266.25;4855926;28;102758;-68
2024/01/08 10:15:02;;;;;;;;;16.50;14.00;;;;;-143.90;100.00;78286.94;4865733;28;101729;-69
2024/01/08 10:17:30;;;;;;;;;24.50;20.75;;;;;-143.90;99.17;78266.25;4856591;28;104379;-68
2024/01/08 10:20:09;;;;;;;;;9.00;5.00;;;;;-143.90;100.00;78226.94;4858920;28;103397;-68
2024/01/08 10:22:37;;;;;;;;;18.75;14.50;;;;;-143.90;98.72;78257.97;4853019;28;101992;-70
2024/01/08 10:25:06;;;;;;;;;15.25;9.25;;;;;-143.90;98.93;78249.69;4856955;28;103898;-69
2024/01/08 10:27:33;;;;;;;;;13.25;9.50;;;;;-143.90;98.25;78224.88;4834976;28;101897;-68
2024/01/08 10:29:59;;;;;;;;;18.25;16.25;;;;;-143.90;96.72;78222.78;4865289;28;103548;-68
2024/01/08 10:32:26;;;;;;;;;17.50;15.00;;;;;-143.90;99.67;78212.44;4867683;28;101987;-68
2024/01/08 10:34:55;;;;;;;;;16.75;13.50;;;;;-143.90;98.58;78220.72;4880999;28;101892;-69
2024/01/08 10:37:22;;;;;;;;;25.25;16.00;;;;;-143.90;99.95;78241.41;4882273;28;101840;-69
2024/01/08 10:39:51;;;;;;;;;15.50;13.50;;;;;-143.90;99.65;78253.81;4883480;28;103749;-68
2024/01/08 10:42:18;;;;;;;;;15.25;13.50;;;;;-143.90;100.00;78237.28;4879028;28;101972;-68
2024/01/08 10:44:45;;;;;;;;;18.75;18.50;;;;;-143.90;99.95;78204.19;4874870;28;101927;-68
2024/01/08 10:47:23;;;;;;;;;20.50;17.00;;;;;-143.90;97.72;78214.53;4866352;28;102252;-68